createdAt,value
2023-04-04T00:00:39.187Z,58.41
2023-04-04T00:03:06.818Z,57.56
2023-04-04T00:05:35.817Z,57.87
2023-04-04T00:08:03.737Z,57.95
2023-04-04T00:10:30.489Z,57.57
2023-04-04T00:12:57.142Z,57.58
2023-04-04T00:15:24.035Z,57.44
2023-04-04T00:17:50.986Z,57.52
2023-04-04T00:20:17.881Z,56.79
2023-04-04T00:22:45.198Z,57.24
2023-04-04T00:25:12.330Z,57.06
2023-04-04T00:27:39.175Z,57.21
2023-04-04T00:30:07.196Z,56.78
2023-04-04T00:32:34.090Z,56.81
2023-04-04T00:35:01.076Z,57.02
2023-04-04T00:37:28.116Z,56.83
2023-04-04T00:39:54.799Z,57.43
2023-04-04T00:42:21.818Z,56.76
2023-04-04T00:44:48.740Z,57.18
2023-04-04T00:47:15.546Z,56.98
2023-04-04T00:49:42.782Z,57.45
2023-04-04T00:52:09.616Z,57.40
2023-04-04T00:54:36.488Z,57.85
2023-04-04T00:57:04.827Z,57.73
2023-04-04T00:59:32.718Z,57.61
2023-04-04T01:02:00.778Z,57.87
2023-04-04T01:04:29.624Z,58.12
2023-04-04T01:06:57.006Z,57.92
2023-04-04T01:09:23.780Z,57.71
2023-04-04T01:11:51.617Z,57.90
2023-04-04T01:14:18.324Z,57.78
2023-04-04T01:16:45.569Z,58.50
2023-04-04T01:19:24.786Z,58.30
2023-04-04T01:21:52.928Z,58.62
2023-04-04T01:24:22.511Z,59.19
2023-04-04T01:26:56.863Z,59.47
2023-04-04T01:29:23.930Z,59.79
2023-04-04T01:31:57.968Z,60.03
2023-04-04T01:34:44.784Z,60.71
2023-04-04T01:37:19.212Z,60.76
2023-04-04T01:39:53.785Z,60.73
2023-04-04T01:42:21.127Z,60.60
2023-04-04T01:44:54.932Z,60.68
2023-04-04T01:47:22.517Z,60.88
2023-04-04T01:49:49.315Z,60.85
2023-04-04T01:52:16.991Z,60.55
2023-04-04T01:54:43.646Z,60.64
2023-04-04T01:57:10.467Z,60.66
2023-04-04T01:59:37.248Z,60.74
2023-04-04T02:02:04.161Z,60.09
2023-04-04T02:04:30.764Z,60.57
2023-04-04T02:06:57.603Z,60.10
2023-04-04T02:09:24.742Z,59.56
2023-04-04T02:11:51.715Z,59.71
2023-04-04T02:14:19.584Z,59.40
2023-04-04T02:16:46.459Z,59.91
2023-04-04T02:19:13.181Z,59.88
2023-04-04T02:21:40.054Z,59.89
2023-04-04T02:24:07.325Z,59.88
2023-04-04T02:26:34.328Z,59.70
2023-04-04T02:29:01.121Z,59.46
2023-04-04T02:31:28.126Z,59.84
2023-04-04T02:33:55.481Z,60.33
2023-04-04T02:36:22.289Z,60.06
2023-04-04T02:38:52.254Z,60.08
2023-04-04T02:41:23.388Z,60.01
2023-04-04T02:43:50.258Z,60.02
2023-04-04T02:46:21.982Z,60.29
2023-04-04T02:48:55.492Z,60.18
2023-04-04T02:51:22.507Z,59.83
2023-04-04T02:53:49.385Z,59.79
2023-04-04T02:56:22.225Z,60.20
2023-04-04T02:58:49.101Z,60.17
2023-04-04T03:01:16.256Z,60.12
2023-04-04T03:03:43.161Z,59.95
2023-04-04T03:06:10.083Z,60.01
2023-04-04T03:08:37.201Z,60.05
2023-04-04T03:11:05.047Z,59.88
2023-04-04T03:13:31.896Z,60.58
2023-04-04T03:16:04.764Z,60.77
2023-04-04T03:18:41.953Z,61.18
2023-04-04T03:21:08.838Z,61.49
2023-04-04T03:23:35.684Z,61.85
2023-04-04T03:26:02.636Z,61.62
2023-04-04T03:28:29.376Z,61.67
2023-04-04T03:30:56.784Z,61.81
2023-04-04T03:33:23.600Z,62.78
2023-04-04T03:35:50.595Z,62.80
2023-04-04T03:38:17.631Z,62.40
2023-04-04T03:40:44.533Z,62.37
2023-04-04T03:43:12.840Z,62.11
2023-04-04T03:45:41.036Z,62.68
2023-04-04T03:48:10.082Z,63.23
2023-04-04T03:50:37.612Z,63.59
2023-04-04T03:53:04.267Z,63.72
2023-04-04T03:55:31.282Z,63.44
2023-04-04T03:57:59.564Z,63.80
2023-04-04T04:00:27.094Z,63.90
2023-04-04T04:02:53.869Z,64.21
2023-04-04T04:05:20.570Z,63.76
2023-04-04T04:07:47.175Z,64.03
2023-04-04T04:10:17.049Z,63.92
2023-04-04T04:12:43.821Z,64.46
2023-04-04T04:15:11.164Z,64.29
2023-04-04T04:17:40.785Z,64.72
2023-04-04T04:20:09.734Z,63.86
2023-04-04T04:22:46.378Z,64.56
2023-04-04T04:25:14.437Z,64.32
2023-04-04T04:27:44.867Z,64.82
2023-04-04T04:30:13.035Z,64.49
2023-04-04T04:32:43.604Z,64.84
2023-04-04T04:35:11.581Z,64.62
2023-04-04T04:37:38.912Z,65.32
2023-04-04T04:40:08.709Z,64.82
2023-04-04T04:42:46.078Z,63.82
2023-04-04T04:45:16.001Z,64.47
2023-04-04T04:47:47.227Z,64.16
2023-04-04T04:50:17.806Z,64.27
2023-04-04T04:52:50.626Z,64.29
2023-04-04T04:55:17.873Z,63.98
2023-04-04T04:57:50.630Z,64.92
2023-04-04T05:00:23.503Z,64.07
2023-04-04T05:02:51.304Z,63.67
2023-04-04T05:05:26.582Z,62.81
2023-04-04T05:08:03.872Z,62.92
2023-04-04T05:10:31.206Z,62.46
2023-04-04T05:12:58.195Z,61.56
2023-04-04T05:15:29.360Z,61.73
2023-04-04T05:17:56.200Z,61.80
2023-04-04T05:20:23.400Z,60.99
2023-04-04T05:22:51.711Z,60.61
2023-04-04T05:25:25.366Z,61.05
2023-04-04T05:27:52.649Z,60.72
2023-04-04T05:30:21.463Z,59.93
2023-04-04T05:32:59.149Z,59.54
2023-04-04T05:35:28.860Z,59.44
2023-04-04T05:37:57.416Z,59.56
2023-04-04T05:40:24.876Z,59.10
2023-04-04T05:43:04.300Z,59.28
2023-04-04T05:45:38.426Z,58.77
2023-04-04T05:48:07.021Z,57.98
2023-04-04T05:50:40.609Z,58.04
2023-04-04T05:53:08.085Z,57.69
2023-04-04T05:55:34.932Z,57.61
2023-04-04T05:58:01.958Z,56.67
2023-04-04T06:00:43.785Z,57.28
2023-04-04T06:03:10.862Z,57.84
2023-04-04T06:05:37.852Z,57.72
2023-04-04T06:08:04.842Z,57.17
2023-04-04T06:10:31.842Z,57.65
2023-04-04T06:12:58.669Z,57.81
2023-04-04T06:15:25.655Z,58.02
2023-04-04T06:17:52.745Z,58.28
2023-04-04T06:20:21.487Z,58.44
2023-04-04T06:22:49.928Z,58.27
2023-04-04T06:25:18.338Z,58.18
2023-04-04T06:27:46.548Z,58.26
2023-04-04T06:30:17.077Z,58.31
2023-04-04T06:32:55.588Z,57.94
2023-04-04T06:35:32.184Z,58.51
2023-04-04T06:38:00.901Z,58.52
2023-04-04T06:40:29.627Z,58.23
2023-04-04T06:42:58.620Z,58.01
2023-04-04T06:45:35.963Z,59.03
2023-04-04T06:48:03.859Z,58.40
2023-04-04T06:50:33.794Z,57.98
2023-04-04T06:53:03.546Z,57.22
2023-04-04T06:55:30.406Z,57.38
2023-04-04T06:57:57.144Z,57.08
2023-04-04T07:00:23.979Z,57.64
2023-04-04T07:02:50.867Z,56.77
2023-04-04T07:05:18.281Z,56.96
2023-04-04T07:07:47.049Z,57.26
2023-04-04T07:10:13.749Z,56.79
2023-04-04T07:12:41.336Z,56.69
2023-04-04T07:15:09.207Z,56.22
2023-04-04T07:17:38.768Z,56.01
2023-04-04T07:20:06.614Z,56.04
2023-04-04T07:22:33.442Z,56.31
2023-04-04T07:25:00.281Z,56.15
2023-04-04T07:27:27.304Z,56.12
2023-04-04T07:29:54.317Z,56.43
2023-04-04T07:32:23.237Z,55.94
2023-04-04T07:34:51.093Z,55.60
2023-04-04T07:37:18.587Z,56.22
2023-04-04T07:39:45.508Z,55.49
2023-04-04T07:42:12.325Z,55.24
2023-04-04T07:44:39.031Z,55.39
2023-04-04T07:47:09.949Z,54.89
2023-04-04T07:49:37.341Z,54.52
2023-04-04T07:52:05.098Z,54.61
2023-04-04T07:54:31.966Z,54.31
2023-04-04T07:56:58.816Z,54.44
2023-04-04T07:59:25.757Z,54.57
2023-04-04T08:01:52.781Z,54.29
2023-04-04T08:04:19.754Z,54.15
2023-04-04T08:06:46.730Z,54.02
2023-04-04T08:09:13.558Z,53.34
2023-04-04T08:11:40.200Z,52.93
2023-04-04T08:14:06.945Z,52.83
2023-04-04T08:16:33.837Z,53.67
2023-04-04T08:19:00.805Z,53.12
2023-04-04T08:21:27.693Z,52.92
2023-04-04T08:23:54.686Z,52.21
2023-04-04T08:26:22.074Z,51.90
2023-04-04T08:28:50.204Z,51.16
2023-04-04T08:31:17.093Z,51.14
2023-04-04T08:33:47.740Z,52.15
2023-04-04T08:36:15.691Z,52.07
2023-04-04T08:38:42.730Z,51.37
2023-04-04T08:41:09.793Z,49.84
2023-04-04T08:43:38.147Z,49.35
2023-04-04T08:46:06.045Z,50.16
2023-04-04T08:48:33.890Z,50.31
2023-04-04T08:51:01.029Z,49.41
2023-04-04T08:53:29.440Z,49.57
2023-04-04T08:55:58.127Z,48.40
2023-04-04T08:58:24.832Z,48.28
2023-04-04T09:00:55.452Z,47.83
2023-04-04T09:03:26.331Z,48.31
2023-04-04T09:05:54.384Z,47.86
2023-04-04T09:08:23.782Z,47.85
2023-04-04T09:10:52.479Z,48.62
2023-04-04T09:13:19.513Z,49.02
2023-04-04T09:15:49.337Z,47.74
2023-04-04T09:18:17.184Z,48.73
2023-04-04T09:20:46.806Z,47.98
2023-04-04T09:23:19.220Z,47.99
2023-04-04T09:28:21.691Z,48.27
2023-04-04T09:30:49.920Z,48.07
2023-04-04T09:33:18.250Z,48.46
2023-04-04T09:35:47.710Z,48.09
2023-04-04T09:38:15.336Z,48.00
2023-04-04T09:40:43.158Z,48.34
2023-04-04T09:43:12.406Z,48.80
2023-04-04T09:45:42.098Z,46.77
2023-04-04T09:48:11.716Z,46.67
2023-04-04T09:50:45.862Z,46.45
2023-04-04T09:53:19.220Z,45.84
2023-04-04T09:55:54.013Z,46.71
2023-04-04T09:58:32.070Z,46.77
2023-04-04T10:01:01.275Z,46.24
2023-04-04T10:03:29.224Z,46.81
2023-04-04T10:06:14.256Z,46.13
2023-04-04T10:08:43.178Z,47.27
2023-04-04T10:11:12.424Z,47.38
2023-04-04T10:13:46.708Z,47.99
2023-04-04T10:16:14.338Z,47.69
2023-04-04T10:18:42.576Z,47.11
2023-04-04T10:23:41.604Z,46.18
2023-04-04T10:26:08.377Z,46.02
2023-04-04T10:28:35.539Z,46.14
2023-04-04T10:31:21.538Z,45.17
2023-04-04T10:33:54.576Z,46.19
2023-04-04T10:36:23.667Z,45.61
2023-04-04T10:39:06.465Z,44.99
2023-04-04T10:41:33.456Z,44.84
2023-04-04T10:44:01.450Z,45.27
2023-04-04T10:46:31.956Z,45.52
2023-04-04T10:49:00.422Z,46.15
2023-04-04T10:51:27.615Z,45.37
2023-04-04T10:53:54.991Z,45.93
2023-04-04T10:56:22.531Z,44.39
2023-04-04T10:58:49.505Z,43.99
2023-04-04T11:01:21.521Z,44.74
2023-04-04T11:04:22.026Z,44.19
2023-04-04T11:07:18.355Z,43.98
2023-04-04T11:09:58.917Z,44.57
2023-04-04T11:12:38.433Z,44.92
2023-04-04T11:15:10.367Z,45.56
2023-04-04T11:17:49.410Z,46.22
2023-04-04T11:20:21.449Z,46.24
2023-04-04T11:23:03.915Z,46.35
2023-04-04T11:25:41.970Z,45.60
2023-04-04T11:28:25.287Z,46.17
2023-04-04T11:31:17.607Z,45.66
2023-04-04T11:34:05.307Z,45.92
2023-04-04T11:36:38.941Z,45.61
2023-04-04T11:39:22.829Z,45.69
2023-04-04T11:41:53.516Z,44.38
2023-04-04T11:44:23.944Z,44.29
2023-04-04T11:46:58.552Z,44.26
2023-04-04T11:49:32.255Z,44.37
2023-04-04T11:51:59.095Z,43.60
2023-04-04T11:54:26.426Z,43.92
2023-04-04T11:56:53.709Z,43.17
2023-04-04T11:59:21.843Z,44.50
2023-04-04T12:01:50.040Z,42.56
2023-04-04T12:04:20.710Z,44.48
2023-04-04T12:06:53.456Z,43.21
2023-04-04T12:09:21.184Z,42.13
2023-04-04T12:11:48.621Z,42.56
2023-04-04T12:14:23.794Z,42.48
2023-04-04T12:16:56.764Z,43.05
2023-04-04T12:19:24.201Z,41.64
2023-04-04T12:21:52.319Z,42.76
2023-04-04T12:24:19.494Z,41.84
2023-04-04T12:26:47.881Z,41.41
2023-04-04T12:29:17.182Z,40.92
2023-04-04T12:31:45.363Z,42.73
2023-04-04T12:37:04.715Z,42.89
2023-04-04T12:39:31.997Z,41.81
2023-04-04T12:42:03.596Z,41.57
2023-04-04T12:44:31.323Z,42.38
2023-04-04T12:47:00.387Z,42.13
2023-04-04T12:49:31.718Z,41.76
2023-04-04T12:52:04.936Z,42.12
2023-04-04T12:54:33.407Z,41.00
2023-04-04T12:57:04.404Z,41.54
2023-04-04T12:59:36.285Z,42.19
2023-04-04T13:02:07.882Z,41.42
2023-04-04T13:04:37.942Z,41.76
2023-04-04T13:07:08.200Z,42.44
2023-04-04T13:09:36.969Z,42.16
2023-04-04T13:12:09.259Z,40.91
2023-04-04T13:15:01.098Z,41.86
2023-04-04T13:17:47.248Z,41.57
2023-04-04T13:23:28.038Z,40.95
2023-04-04T13:26:09.993Z,41.54
2023-04-04T13:29:09.404Z,40.80
2023-04-04T13:31:39.025Z,41.45
2023-04-04T13:34:13.243Z,40.22
2023-04-04T13:39:35.783Z,40.37
2023-04-04T13:45:05.594Z,39.22
2023-04-04T13:47:37.596Z,38.87
2023-04-04T13:50:12.567Z,39.43
2023-04-04T13:56:07.657Z,38.34
2023-04-04T13:58:35.441Z,39.47
2023-04-04T14:01:09.006Z,39.79
2023-04-04T14:03:37.271Z,39.97
2023-04-04T14:06:10.949Z,40.32
2023-04-04T14:08:39.463Z,40.61
2023-04-04T14:11:07.310Z,40.58
2023-04-04T14:13:34.322Z,39.66
2023-04-04T14:16:02.664Z,39.61
2023-04-04T14:18:31.074Z,39.39
2023-04-04T14:20:58.172Z,39.95
2023-04-04T14:23:25.436Z,38.92
2023-04-04T14:25:52.612Z,38.68
2023-04-04T14:28:19.801Z,39.58
2023-04-04T14:30:47.230Z,38.89
2023-04-04T14:33:15.382Z,39.43
2023-04-04T14:35:42.647Z,39.36
2023-04-04T14:38:09.926Z,39.15
2023-04-04T14:40:37.605Z,39.11
2023-04-04T14:43:06.148Z,39.31
2023-04-04T14:45:33.644Z,39.03
2023-04-04T14:48:06.171Z,39.35
2023-04-04T14:50:33.491Z,39.23
2023-04-04T14:53:00.938Z,39.54
2023-04-04T14:55:28.903Z,40.12
2023-04-04T14:58:02.505Z,39.91
2023-04-04T15:00:31.080Z,40.59
2023-04-04T15:02:59.099Z,39.45
2023-04-04T15:05:27.652Z,39.25
2023-04-04T15:07:56.098Z,40.03
2023-04-04T15:10:24.315Z,40.08
2023-04-04T15:12:51.554Z,39.85
2023-04-04T15:15:19.030Z,40.20
2023-04-04T15:17:48.502Z,39.71
2023-04-04T15:20:15.784Z,40.43
2023-04-04T15:22:43.520Z,39.64
2023-04-04T15:25:12.804Z,39.86
2023-04-04T15:27:41.203Z,39.42
2023-04-04T15:30:09.060Z,39.40
2023-04-04T15:32:36.605Z,39.87
2023-04-04T15:35:04.628Z,40.09
2023-04-04T15:37:31.574Z,40.39
2023-04-04T15:39:59.704Z,40.45
2023-04-04T15:42:28.551Z,40.14
2023-04-04T15:44:55.998Z,40.12
2023-04-04T15:47:23.075Z,40.16
2023-04-04T15:49:54.305Z,40.48
2023-04-04T15:52:21.596Z,40.54
2023-04-04T15:54:51.114Z,40.92
2023-04-04T15:57:21.617Z,40.75
2023-04-04T15:59:52.254Z,41.47
2023-04-04T16:02:19.549Z,40.99
2023-04-04T16:04:50.143Z,40.90
2023-04-04T16:07:19.037Z,40.97
2023-04-04T16:09:46.553Z,41.90
2023-04-04T16:12:14.252Z,41.23
2023-04-04T16:14:45.728Z,40.72
2023-04-04T16:17:15.142Z,40.42
2023-04-04T16:28:10.748Z,41.24
2023-04-04T16:30:39.555Z,41.13
2023-04-04T16:33:07.058Z,41.43
2023-04-04T16:35:37.061Z,41.32
2023-04-04T16:38:09.653Z,42.10
2023-04-04T16:40:39.583Z,42.49
2023-04-04T16:43:08.107Z,42.35
2023-04-04T16:45:35.023Z,42.36
2023-04-04T16:48:02.042Z,42.46
2023-04-04T16:50:28.912Z,42.65
2023-04-04T16:52:55.821Z,42.67
2023-04-04T16:55:34.127Z,42.97
2023-04-04T16:58:01.382Z,43.17
2023-04-04T17:00:33.435Z,42.91
2023-04-04T17:03:03.555Z,43.22
2023-04-04T17:05:34.224Z,43.16
2023-04-04T17:08:04.496Z,43.59
2023-04-04T17:10:31.796Z,43.64
2023-04-04T17:13:03.153Z,43.77
2023-04-04T17:15:34.148Z,43.96
2023-04-04T17:18:05.092Z,44.24
2023-04-04T17:20:34.612Z,44.64
2023-04-04T17:23:04.554Z,44.47
2023-04-04T17:28:26.969Z,44.88
2023-04-04T17:30:59.643Z,44.93
2023-04-04T17:33:38.986Z,45.26
2023-04-04T17:36:09.918Z,45.17
2023-04-04T17:38:40.434Z,45.83
2023-04-04T17:41:08.608Z,46.23
2023-04-04T17:43:44.228Z,46.42
2023-04-04T17:46:12.105Z,46.58
2023-04-04T20:12:41.286Z,61.26
2023-04-04T20:19:52.110Z,63.13
2023-04-04T20:22:27.043Z,62.95
2023-04-04T20:25:07.560Z,63.37
2023-04-04T20:27:42.497Z,63.62
2023-04-04T20:30:23.824Z,64.05
2023-04-04T20:33:04.368Z,64.11
2023-04-04T20:35:32.692Z,64.68
2023-04-04T20:37:59.985Z,65.46
2023-04-04T20:40:42.735Z,65.17
2023-04-04T20:43:10.319Z,65.58
2023-04-04T20:45:48.340Z,65.55
2023-04-04T20:48:55.025Z,65.71
2023-04-04T20:54:14.573Z,66.63
2023-04-04T20:56:57.166Z,67.02
2023-04-04T20:59:48.821Z,67.59
2023-04-04T21:02:42.840Z,67.21
2023-04-04T21:05:32.673Z,66.88
2023-04-04T21:08:29.903Z,67.87
2023-04-04T21:11:29.280Z,67.53
2023-04-04T21:13:57.738Z,67.12
2023-04-04T21:16:28.056Z,65.27
2023-04-04T21:19:00.246Z,65.25
2023-04-04T21:21:30.823Z,64.98
2023-04-04T21:24:01.054Z,64.69
2023-04-04T21:26:34.941Z,64.63
2023-04-04T21:29:07.151Z,63.95
2023-04-04T21:31:39.110Z,64.08
2023-04-04T21:34:12.268Z,64.48
2023-04-04T21:36:39.259Z,64.33
2023-04-04T21:39:31.192Z,63.80
2023-04-04T21:42:07.882Z,64.20
2023-04-04T21:44:35.661Z,64.58
2023-04-04T21:47:02.585Z,64.10
2023-04-04T21:49:29.504Z,64.33
2023-04-04T21:51:56.311Z,64.19
2023-04-04T21:54:23.249Z,63.94
2023-04-04T21:56:50.147Z,64.34
2023-04-04T21:59:17.117Z,64.57
2023-04-04T22:04:42.253Z,65.38
2023-04-04T22:07:09.406Z,65.25
2023-04-04T22:09:38.695Z,65.36
2023-04-04T22:12:05.810Z,65.32
2023-04-04T22:14:32.739Z,65.33
2023-04-04T22:16:59.839Z,65.40
2023-04-04T22:19:26.841Z,64.77
2023-04-04T22:21:54.409Z,65.31
2023-04-04T22:24:21.708Z,65.34
2023-04-04T22:26:50.487Z,65.30
2023-04-04T22:29:17.860Z,65.23
2023-04-04T22:31:44.755Z,65.61
2023-04-04T22:34:21.466Z,65.12
2023-04-04T22:36:57.937Z,65.48
2023-04-04T22:40:05.031Z,65.33
2023-04-04T23:09:46.476Z,66.03
2023-04-04T23:12:58.836Z,66.01
2023-04-04T23:24:29.701Z,67.02
